sensor_id;sensor_type;location;lat;lon;timestamp;P1;durP1;ratioP1;P2;durP2;ratioP2
39098;SDS011;24844;52.380;7.018;2023-04-24T00:02:22;6.05;;;5.35;;
39098;SDS011;24844;52.380;7.018;2023-04-24T00:04:48;6.72;;;5.20;;
39098;SDS011;24844;52.380;7.018;2023-04-24T00:07:14;7.70;;;5.20;;
39098;SDS011;24844;52.380;7.018;2023-04-24T00:09:42;6.25;;;5.63;;
39098;SDS011;24844;52.380;7.018;2023-04-24T00:12:08;5.85;;;5.35;;
39098;SDS011;24844;52.380;7.018;2023-04-24T00:14:34;8.40;;;5.90;;
39098;SDS011;24844;52.380;7.018;2023-04-24T00:17:00;5.72;;;4.95;;
39098;SDS011;24844;52.380;7.018;2023-04-24T00:19:27;7.43;;;5.95;;
39098;SDS011;24844;52.380;7.018;2023-04-24T00:21:53;6.85;;;5.60;;
39098;SDS011;24844;52.380;7.018;2023-04-24T00:24:19;6.07;;;5.40;;
39098;SDS011;24844;52.380;7.018;2023-04-24T00:26:45;6.05;;;5.45;;
39098;SDS011;24844;52.380;7.018;2023-04-24T00:29:10;6.05;;;5.43;;
39098;SDS011;24844;52.380;7.018;2023-04-24T00:31:36;8.55;;;6.35;;
39098;SDS011;24844;52.380;7.018;2023-04-24T00:34:02;8.88;;;5.97;;
39098;SDS011;24844;52.380;7.018;2023-04-24T00:36:28;7.13;;;6.43;;
39098;SDS011;24844;52.380;7.018;2023-04-24T00:38:54;7.75;;;6.25;;
39098;SDS011;24844;52.380;7.018;2023-04-24T00:41:20;6.32;;;5.43;;
39098;SDS011;24844;52.380;7.018;2023-04-24T00:43:47;6.95;;;6.25;;
39098;SDS011;24844;52.380;7.018;2023-04-24T00:46:12;7.95;;;6.38;;
39098;SDS011;24844;52.380;7.018;2023-04-24T00:48:39;7.63;;;6.82;;
39098;SDS011;24844;52.380;7.018;2023-04-24T00:51:05;7.25;;;6.55;;
39098;SDS011;24844;52.380;7.018;2023-04-24T00:53:30;7.32;;;5.65;;
39098;SDS011;24844;52.380;7.018;2023-04-24T00:55:56;6.70;;;5.95;;
39098;SDS011;24844;52.380;7.018;2023-04-24T00:58:22;7.53;;;6.45;;
39098;SDS011;24844;52.380;7.018;2023-04-24T01:00:49;7.15;;;6.45;;
39098;SDS011;24844;52.380;7.018;2023-04-24T01:03:18;8.35;;;7.18;;
39098;SDS011;24844;52.380;7.018;2023-04-24T01:05:49;8.77;;;7.80;;
39098;SDS011;24844;52.380;7.018;2023-04-24T01:08:15;8.75;;;7.85;;
39098;SDS011;24844;52.380;7.018;2023-04-24T01:10:41;8.45;;;7.65;;
39098;SDS011;24844;52.380;7.018;2023-04-24T01:13:08;10.68;;;8.85;;
39098;SDS011;24844;52.380;7.018;2023-04-24T01:15:34;11.45;;;9.05;;
39098;SDS011;24844;52.380;7.018;2023-04-24T01:18:00;10.68;;;9.57;;
39098;SDS011;24844;52.380;7.018;2023-04-24T01:20:26;10.30;;;8.10;;
39098;SDS011;24844;52.380;7.018;2023-04-24T01:22:52;9.75;;;8.75;;
39098;SDS011;24844;52.380;7.018;2023-04-24T01:25:19;12.18;;;10.85;;
39098;SDS011;24844;52.380;7.018;2023-04-24T01:27:45;11.07;;;9.98;;
39098;SDS011;24844;52.380;7.018;2023-04-24T01:30:11;15.50;;;10.45;;
39098;SDS011;24844;52.380;7.018;2023-04-24T01:32:37;13.77;;;11.18;;
39098;SDS011;24844;52.380;7.018;2023-04-24T01:35:04;14.27;;;11.93;;
39098;SDS011;24844;52.380;7.018;2023-04-24T01:37:30;13.40;;;12.00;;
39098;SDS011;24844;52.380;7.018;2023-04-24T01:39:57;14.52;;;12.30;;
39098;SDS011;24844;52.380;7.018;2023-04-24T01:42:22;16.67;;;13.65;;
39098;SDS011;24844;52.380;7.018;2023-04-24T01:44:48;14.85;;;12.82;;
39098;SDS011;24844;52.380;7.018;2023-04-24T01:47:14;15.13;;;13.57;;
39098;SDS011;24844;52.380;7.018;2023-04-24T01:49:40;15.20;;;13.27;;
39098;SDS011;24844;52.380;7.018;2023-04-24T01:52:06;16.83;;;14.63;;
39098;SDS011;24844;52.380;7.018;2023-04-24T01:54:31;14.70;;;12.80;;
39098;SDS011;24844;52.380;7.018;2023-04-24T01:56:57;15.35;;;13.75;;
39098;SDS011;24844;52.380;7.018;2023-04-24T01:59:23;14.63;;;13.00;;
39098;SDS011;24844;52.380;7.018;2023-04-24T02:01:50;14.57;;;12.70;;
39098;SDS011;24844;52.380;7.018;2023-04-24T02:04:15;13.25;;;11.40;;
39098;SDS011;24844;52.380;7.018;2023-04-24T02:06:41;13.10;;;11.82;;
39098;SDS011;24844;52.380;7.018;2023-04-24T02:09:06;12.60;;;10.95;;
39098;SDS011;24844;52.380;7.018;2023-04-24T02:11:32;13.07;;;11.48;;
39098;SDS011;24844;52.380;7.018;2023-04-24T02:13:58;13.95;;;11.52;;
39098;SDS011;24844;52.380;7.018;2023-04-24T02:16:24;13.00;;;11.13;;
39098;SDS011;24844;52.380;7.018;2023-04-24T02:18:49;11.35;;;10.25;;
39098;SDS011;24844;52.380;7.018;2023-04-24T02:21:15;13.23;;;11.35;;
39098;SDS011;24844;52.380;7.018;2023-04-24T02:23:41;13.15;;;11.70;;
39098;SDS011;24844;52.380;7.018;2023-04-24T02:26:07;12.95;;;11.20;;
39098;SDS011;24844;52.380;7.018;2023-04-24T02:28:32;12.45;;;11.13;;
39098;SDS011;24844;52.380;7.018;2023-04-24T02:30:58;12.77;;;10.85;;
39098;SDS011;24844;52.380;7.018;2023-04-24T02:33:23;12.55;;;11.02;;
39098;SDS011;24844;52.380;7.018;2023-04-24T02:35:49;13.63;;;10.65;;
39098;SDS011;24844;52.380;7.018;2023-04-24T02:38:14;14.85;;;11.23;;
39098;SDS011;24844;52.380;7.018;2023-04-24T02:40:40;13.68;;;10.52;;
39098;SDS011;24844;52.380;7.018;2023-04-24T02:43:06;13.43;;;11.23;;
39098;SDS011;24844;52.380;7.018;2023-04-24T02:45:31;13.68;;;11.73;;
39098;SDS011;24844;52.380;7.018;2023-04-24T02:47:59;16.48;;;12.10;;
39098;SDS011;24844;52.380;7.018;2023-04-24T02:50:25;15.02;;;13.40;;
39098;SDS011;24844;52.380;7.018;2023-04-24T02:52:50;17.25;;;13.10;;
39098;SDS011;24844;52.380;7.018;2023-04-24T02:55:16;15.05;;;12.20;;
39098;SDS011;24844;52.380;7.018;2023-04-24T02:57:41;20.45;;;14.13;;
39098;SDS011;24844;52.380;7.018;2023-04-24T03:00:07;16.20;;;13.98;;
39098;SDS011;24844;52.380;7.018;2023-04-24T03:02:34;18.75;;;14.60;;
39098;SDS011;24844;52.380;7.018;2023-04-24T03:04:59;17.88;;;14.95;;
39098;SDS011;24844;52.380;7.018;2023-04-24T03:07:25;19.55;;;15.82;;
39098;SDS011;24844;52.380;7.018;2023-04-24T03:09:50;20.20;;;16.13;;
39098;SDS011;24844;52.380;7.018;2023-04-24T03:12:16;20.77;;;15.93;;
39098;SDS011;24844;52.380;7.018;2023-04-24T03:14:42;18.02;;;15.30;;
39098;SDS011;24844;52.380;7.018;2023-04-24T03:17:08;18.95;;;16.17;;
39098;SDS011;24844;52.380;7.018;2023-04-24T03:19:34;20.60;;;15.95;;
39098;SDS011;24844;52.380;7.018;2023-04-24T03:22:01;19.90;;;15.95;;
39098;SDS011;24844;52.380;7.018;2023-04-24T03:24:27;18.80;;;15.73;;
39098;SDS011;24844;52.380;7.018;2023-04-24T03:26:53;17.75;;;14.73;;
39098;SDS011;24844;52.380;7.018;2023-04-24T03:29:19;20.02;;;16.23;;
39098;SDS011;24844;52.380;7.018;2023-04-24T03:31:44;21.50;;;15.75;;
39098;SDS011;24844;52.380;7.018;2023-04-24T03:34:10;24.40;;;14.90;;
39098;SDS011;24844;52.380;7.018;2023-04-24T03:36:36;18.55;;;14.90;;
39098;SDS011;24844;52.380;7.018;2023-04-24T03:39:01;19.63;;;16.30;;
39098;SDS011;24844;52.380;7.018;2023-04-24T03:41:27;21.02;;;15.48;;
39098;SDS011;24844;52.380;7.018;2023-04-24T03:43:52;22.70;;;16.38;;
39098;SDS011;24844;52.380;7.018;2023-04-24T03:46:18;22.23;;;15.90;;
39098;SDS011;24844;52.380;7.018;2023-04-24T03:48:43;23.67;;;18.45;;
39098;SDS011;24844;52.380;7.018;2023-04-24T03:51:09;22.85;;;16.55;;
39098;SDS011;24844;52.380;7.018;2023-04-24T03:53:34;22.98;;;16.95;;
39098;SDS011;24844;52.380;7.018;2023-04-24T03:56:00;20.25;;;16.30;;
39098;SDS011;24844;52.380;7.018;2023-04-24T03:58:25;27.63;;;18.08;;
39098;SDS011;24844;52.380;7.018;2023-04-24T04:00:51;21.52;;;16.58;;
39098;SDS011;24844;52.380;7.018;2023-04-24T04:03:17;20.48;;;16.08;;
39098;SDS011;24844;52.380;7.018;2023-04-24T04:05:42;22.83;;;16.55;;
39098;SDS011;24844;52.380;7.018;2023-04-24T04:08:08;21.80;;;16.55;;
39098;SDS011;24844;52.380;7.018;2023-04-24T04:10:33;22.63;;;16.15;;
39098;SDS011;24844;52.380;7.018;2023-04-24T04:12:59;24.25;;;16.60;;
39098;SDS011;24844;52.380;7.018;2023-04-24T04:15:25;24.27;;;17.45;;
39098;SDS011;24844;52.380;7.018;2023-04-24T04:17:50;22.10;;;16.92;;
39098;SDS011;24844;52.380;7.018;2023-04-24T04:20:16;22.88;;;18.35;;
39098;SDS011;24844;52.380;7.018;2023-04-24T04:22:41;24.63;;;18.58;;
39098;SDS011;24844;52.380;7.018;2023-04-24T04:25:07;23.00;;;18.05;;
39098;SDS011;24844;52.380;7.018;2023-04-24T04:27:33;24.27;;;18.27;;
39098;SDS011;24844;52.380;7.018;2023-04-24T04:30:03;24.58;;;19.60;;
39098;SDS011;24844;52.380;7.018;2023-04-24T04:32:31;27.08;;;19.25;;
39098;SDS011;24844;52.380;7.018;2023-04-24T04:34:58;27.05;;;18.67;;
39098;SDS011;24844;52.380;7.018;2023-04-24T04:37:27;29.92;;;22.60;;
39098;SDS011;24844;52.380;7.018;2023-04-24T04:39:58;27.50;;;19.50;;
39098;SDS011;24844;52.380;7.018;2023-04-24T04:42:24;28.23;;;20.98;;
39098;SDS011;24844;52.380;7.018;2023-04-24T04:44:50;30.02;;;20.77;;
39098;SDS011;24844;52.380;7.018;2023-04-24T04:47:16;29.55;;;20.73;;
39098;SDS011;24844;52.380;7.018;2023-04-24T04:49:43;28.35;;;21.60;;
39098;SDS011;24844;52.380;7.018;2023-04-24T04:52:09;30.27;;;21.80;;
39098;SDS011;24844;52.380;7.018;2023-04-24T04:54:34;28.58;;;23.33;;
39098;SDS011;24844;52.380;7.018;2023-04-24T04:57:00;31.70;;;22.10;;
39098;SDS011;24844;52.380;7.018;2023-04-24T04:59:26;33.90;;;24.65;;
39098;SDS011;24844;52.380;7.018;2023-04-24T05:01:52;28.75;;;22.70;;
39098;SDS011;24844;52.380;7.018;2023-04-24T05:04:18;30.05;;;23.17;;
39098;SDS011;24844;52.380;7.018;2023-04-24T05:06:43;35.28;;;24.63;;
39098;SDS011;24844;52.380;7.018;2023-04-24T05:09:09;36.53;;;26.63;;
39098;SDS011;24844;52.380;7.018;2023-04-24T05:11:35;35.25;;;24.55;;
39098;SDS011;24844;52.380;7.018;2023-04-24T05:14:00;36.60;;;25.30;;
39098;SDS011;24844;52.380;7.018;2023-04-24T05:16:26;37.58;;;27.95;;
39098;SDS011;24844;52.380;7.018;2023-04-24T05:18:52;34.92;;;26.05;;
39098;SDS011;24844;52.380;7.018;2023-04-24T05:21:17;37.25;;;27.13;;
39098;SDS011;24844;52.380;7.018;2023-04-24T05:23:43;34.00;;;25.20;;
39098;SDS011;24844;52.380;7.018;2023-04-24T05:26:08;34.90;;;26.23;;
39098;SDS011;24844;52.380;7.018;2023-04-24T05:28:34;33.25;;;25.50;;
39098;SDS011;24844;52.380;7.018;2023-04-24T05:31:01;35.83;;;26.70;;
39098;SDS011;24844;52.380;7.018;2023-04-24T05:33:27;32.78;;;24.13;;
39098;SDS011;24844;52.380;7.018;2023-04-24T05:35:53;31.60;;;25.27;;
39098;SDS011;24844;52.380;7.018;2023-04-24T05:38:19;28.20;;;22.80;;
39098;SDS011;24844;52.380;7.018;2023-04-24T05:40:45;30.35;;;23.35;;
39098;SDS011;24844;52.380;7.018;2023-04-24T05:43:11;28.20;;;23.35;;
39098;SDS011;24844;52.380;7.018;2023-04-24T05:45:37;30.42;;;23.23;;
39098;SDS011;24844;52.380;7.018;2023-04-24T05:48:03;30.67;;;22.40;;
39098;SDS011;24844;52.380;7.018;2023-04-24T05:50:29;30.17;;;23.25;;
39098;SDS011;24844;52.380;7.018;2023-04-24T05:52:55;31.00;;;23.50;;
39098;SDS011;24844;52.380;7.018;2023-04-24T05:55:23;32.00;;;24.37;;
39098;SDS011;24844;52.380;7.018;2023-04-24T05:57:49;40.33;;;24.38;;
39098;SDS011;24844;52.380;7.018;2023-04-24T06:00:15;31.50;;;23.83;;
39098;SDS011;24844;52.380;7.018;2023-04-24T06:02:40;29.33;;;24.02;;
39098;SDS011;24844;52.380;7.018;2023-04-24T06:05:06;31.38;;;23.90;;
39098;SDS011;24844;52.380;7.018;2023-04-24T06:07:33;33.17;;;22.60;;
39098;SDS011;24844;52.380;7.018;2023-04-24T06:09:59;27.80;;;22.17;;
39098;SDS011;24844;52.380;7.018;2023-04-24T06:12:25;28.23;;;22.80;;
39098;SDS011;24844;52.380;7.018;2023-04-24T06:14:50;26.75;;;21.30;;
39098;SDS011;24844;52.380;7.018;2023-04-24T06:17:16;25.52;;;20.55;;
39098;SDS011;24844;52.380;7.018;2023-04-24T06:19:42;28.27;;;21.77;;
39098;SDS011;24844;52.380;7.018;2023-04-24T06:22:08;24.08;;;19.95;;
39098;SDS011;24844;52.380;7.018;2023-04-24T06:24:33;24.17;;;19.98;;
39098;SDS011;24844;52.380;7.018;2023-04-24T06:26:59;24.17;;;18.92;;
39098;SDS011;24844;52.380;7.018;2023-04-24T06:29:25;25.83;;;20.45;;
39098;SDS011;24844;52.380;7.018;2023-04-24T06:31:51;24.38;;;18.23;;
39098;SDS011;24844;52.380;7.018;2023-04-24T06:34:16;22.45;;;18.50;;
39098;SDS011;24844;52.380;7.018;2023-04-24T06:36:42;24.75;;;17.45;;
39098;SDS011;24844;52.380;7.018;2023-04-24T06:39:07;22.55;;;17.42;;
39098;SDS011;24844;52.380;7.018;2023-04-24T06:41:33;23.80;;;17.45;;
39098;SDS011;24844;52.380;7.018;2023-04-24T06:43:59;21.65;;;17.50;;
39098;SDS011;24844;52.380;7.018;2023-04-24T06:46:25;26.02;;;18.63;;
39098;SDS011;24844;52.380;7.018;2023-04-24T06:48:52;25.02;;;19.40;;
39098;SDS011;24844;52.380;7.018;2023-04-24T06:51:24;20.92;;;17.65;;
39098;SDS011;24844;52.380;7.018;2023-04-24T06:53:51;24.55;;;17.58;;
39098;SDS011;24844;52.380;7.018;2023-04-24T06:56:17;20.75;;;17.98;;
39098;SDS011;24844;52.380;7.018;2023-04-24T06:58:43;18.05;;;15.52;;
39098;SDS011;24844;52.380;7.018;2023-04-24T07:01:10;21.25;;;17.08;;
39098;SDS011;24844;52.380;7.018;2023-04-24T07:03:36;22.00;;;16.42;;
39098;SDS011;24844;52.380;7.018;2023-04-24T07:06:01;26.55;;;18.73;;
39098;SDS011;24844;52.380;7.018;2023-04-24T07:08:28;20.40;;;15.82;;
39098;SDS011;24844;52.380;7.018;2023-04-24T07:10:55;22.05;;;15.88;;
39098;SDS011;24844;52.380;7.018;2023-04-24T07:13:21;19.23;;;14.80;;
39098;SDS011;24844;52.380;7.018;2023-04-24T07:15:47;21.92;;;15.88;;
39098;SDS011;24844;52.380;7.018;2023-04-24T07:18:15;18.45;;;16.02;;
39098;SDS011;24844;52.380;7.018;2023-04-24T07:20:41;21.08;;;16.17;;
39098;SDS011;24844;52.380;7.018;2023-04-24T07:23:07;21.20;;;16.50;;
39098;SDS011;24844;52.380;7.018;2023-04-24T07:25:33;20.95;;;16.20;;
39098;SDS011;24844;52.380;7.018;2023-04-24T07:27:59;19.42;;;13.85;;
39098;SDS011;24844;52.380;7.018;2023-04-24T07:30:24;23.05;;;17.60;;
39098;SDS011;24844;52.380;7.018;2023-04-24T07:32:50;23.42;;;16.70;;
39098;SDS011;24844;52.380;7.018;2023-04-24T07:35:16;25.92;;;17.92;;
39098;SDS011;24844;52.380;7.018;2023-04-24T07:37:41;24.42;;;16.20;;
39098;SDS011;24844;52.380;7.018;2023-04-24T07:40:11;22.52;;;15.93;;
39098;SDS011;24844;52.380;7.018;2023-04-24T07:42:37;22.35;;;16.30;;
39098;SDS011;24844;52.380;7.018;2023-04-24T07:45:03;23.67;;;17.27;;
39098;SDS011;24844;52.380;7.018;2023-04-24T07:47:29;19.88;;;16.30;;
39098;SDS011;24844;52.380;7.018;2023-04-24T07:49:55;25.30;;;17.85;;
39098;SDS011;24844;52.380;7.018;2023-04-24T07:52:21;17.40;;;14.90;;
39098;SDS011;24844;52.380;7.018;2023-04-24T07:54:47;20.75;;;16.00;;
39098;SDS011;24844;52.380;7.018;2023-04-24T07:57:12;21.05;;;16.88;;
39098;SDS011;24844;52.380;7.018;2023-04-24T07:59:38;23.08;;;16.48;;
39098;SDS011;24844;52.380;7.018;2023-04-24T08:02:04;19.33;;;16.00;;
39098;SDS011;24844;52.380;7.018;2023-04-24T08:04:31;21.05;;;16.10;;
39098;SDS011;24844;52.380;7.018;2023-04-24T08:06:56;19.73;;;15.88;;
39098;SDS011;24844;52.380;7.018;2023-04-24T08:09:22;20.55;;;16.23;;
39098;SDS011;24844;52.380;7.018;2023-04-24T08:11:48;21.40;;;17.08;;
39098;SDS011;24844;52.380;7.018;2023-04-24T08:14:13;22.85;;;17.08;;
39098;SDS011;24844;52.380;7.018;2023-04-24T08:16:40;19.85;;;15.98;;
39098;SDS011;24844;52.380;7.018;2023-04-24T08:19:05;19.48;;;14.98;;
39098;SDS011;24844;52.380;7.018;2023-04-24T08:21:31;25.83;;;16.92;;
39098;SDS011;24844;52.380;7.018;2023-04-24T08:23:57;21.67;;;16.05;;
39098;SDS011;24844;52.380;7.018;2023-04-24T08:26:23;19.52;;;14.32;;
39098;SDS011;24844;52.380;7.018;2023-04-24T08:28:49;15.63;;;12.98;;
39098;SDS011;24844;52.380;7.018;2023-04-24T08:31:14;15.13;;;12.40;;
39098;SDS011;24844;52.380;7.018;2023-04-24T08:33:40;16.40;;;11.52;;
39098;SDS011;24844;52.380;7.018;2023-04-24T08:36:06;13.55;;;12.05;;
39098;SDS011;24844;52.380;7.018;2023-04-24T08:38:33;14.75;;;11.95;;
39098;SDS011;24844;52.380;7.018;2023-04-24T08:40:59;14.50;;;11.25;;
39098;SDS011;24844;52.380;7.018;2023-04-24T08:43:26;13.10;;;10.98;;
39098;SDS011;24844;52.380;7.018;2023-04-24T08:45:52;15.02;;;11.15;;
39098;SDS011;24844;52.380;7.018;2023-04-24T08:48:22;13.82;;;11.15;;
39098;SDS011;24844;52.380;7.018;2023-04-24T08:50:48;12.75;;;10.48;;
39098;SDS011;24844;52.380;7.018;2023-04-24T08:53:18;13.05;;;10.43;;
39098;SDS011;24844;52.380;7.018;2023-04-24T08:55:46;13.20;;;10.10;;
39098;SDS011;24844;52.380;7.018;2023-04-24T08:58:12;10.07;;;8.77;;
39098;SDS011;24844;52.380;7.018;2023-04-24T09:00:40;9.32;;;7.95;;
39098;SDS011;24844;52.380;7.018;2023-04-24T09:03:11;11.30;;;7.45;;
39098;SDS011;24844;52.380;7.018;2023-04-24T09:05:39;11.83;;;8.33;;
39098;SDS011;24844;52.380;7.018;2023-04-24T09:08:05;10.65;;;7.40;;
39098;SDS011;24844;52.380;7.018;2023-04-24T09:10:32;10.25;;;7.47;;
39098;SDS011;24844;52.380;7.018;2023-04-24T09:13:00;9.95;;;6.82;;
39098;SDS011;24844;52.380;7.018;2023-04-24T09:15:26;7.65;;;6.30;;
39098;SDS011;24844;52.380;7.018;2023-04-24T09:17:52;11.10;;;7.20;;
39098;SDS011;24844;52.380;7.018;2023-04-24T09:20:18;10.40;;;6.55;;
39098;SDS011;24844;52.380;7.018;2023-04-24T09:22:44;9.27;;;6.07;;
39098;SDS011;24844;52.380;7.018;2023-04-24T09:25:10;7.45;;;5.82;;
39098;SDS011;24844;52.380;7.018;2023-04-24T09:27:38;9.35;;;5.20;;
39098;SDS011;24844;52.380;7.018;2023-04-24T09:30:07;7.18;;;5.03;;
39098;SDS011;24844;52.380;7.018;2023-04-24T09:32:33;6.15;;;4.90;;
39098;SDS011;24844;52.380;7.018;2023-04-24T09:35:06;4.72;;;3.97;;
39098;SDS011;24844;52.380;7.018;2023-04-24T09:37:37;7.68;;;5.47;;
39098;SDS011;24844;52.380;7.018;2023-04-24T09:40:07;11.93;;;7.32;;
39098;SDS011;24844;52.380;7.018;2023-04-24T09:42:38;12.02;;;8.05;;
39098;SDS011;24844;52.380;7.018;2023-04-24T09:45:08;15.07;;;10.00;;
39098;SDS011;24844;52.380;7.018;2023-04-24T09:47:35;14.93;;;9.38;;
39098;SDS011;24844;52.380;7.018;2023-04-24T09:50:08;17.75;;;10.55;;
39098;SDS011;24844;52.380;7.018;2023-04-24T09:52:42;18.05;;;12.45;;
39098;SDS011;24844;52.380;7.018;2023-04-24T09:55:13;23.95;;;15.43;;
39098;SDS011;24844;52.380;7.018;2023-04-24T09:57:50;25.02;;;17.35;;
39098;SDS011;24844;52.380;7.018;2023-04-24T10:00:22;21.40;;;15.43;;
39098;SDS011;24844;52.380;7.018;2023-04-24T10:02:58;24.65;;;16.50;;
39098;SDS011;24844;52.380;7.018;2023-04-24T10:05:30;28.58;;;16.73;;
39098;SDS011;24844;52.380;7.018;2023-04-24T10:08:01;26.20;;;16.88;;
39098;SDS011;24844;52.380;7.018;2023-04-24T10:10:32;27.63;;;16.50;;
39098;SDS011;24844;52.380;7.018;2023-04-24T10:12:59;27.02;;;15.80;;
39098;SDS011;24844;52.380;7.018;2023-04-24T10:15:26;24.10;;;16.08;;
39098;SDS011;24844;52.380;7.018;2023-04-24T10:17:52;22.50;;;15.15;;
39098;SDS011;24844;52.380;7.018;2023-04-24T10:20:19;21.17;;;14.63;;
39098;SDS011;24844;52.380;7.018;2023-04-24T10:22:47;20.00;;;13.60;;
39098;SDS011;24844;52.380;7.018;2023-04-24T10:25:16;25.35;;;13.60;;
39098;SDS011;24844;52.380;7.018;2023-04-24T10:27:43;24.58;;;14.23;;
39098;SDS011;24844;52.380;7.018;2023-04-24T10:30:11;21.77;;;14.95;;
39098;SDS011;24844;52.380;7.018;2023-04-24T10:32:37;19.40;;;12.88;;
39098;SDS011;24844;52.380;7.018;2023-04-24T10:35:03;19.88;;;13.48;;
39098;SDS011;24844;52.380;7.018;2023-04-24T10:37:34;16.90;;;12.45;;
39098;SDS011;24844;52.380;7.018;2023-04-24T10:40:11;20.27;;;13.48;;
39098;SDS011;24844;52.380;7.018;2023-04-24T10:42:41;17.20;;;11.70;;
39098;SDS011;24844;52.380;7.018;2023-04-24T10:45:15;20.50;;;12.07;;
39098;SDS011;24844;52.380;7.018;2023-04-24T10:47:42;19.67;;;12.40;;
39098;SDS011;24844;52.380;7.018;2023-04-24T10:50:21;20.33;;;11.90;;
39098;SDS011;24844;52.380;7.018;2023-04-24T10:52:47;20.00;;;10.98;;
39098;SDS011;24844;52.380;7.018;2023-04-24T10:58:03;14.52;;;10.85;;
39098;SDS011;24844;52.380;7.018;2023-04-24T11:00:30;18.45;;;11.35;;
39098;SDS011;24844;52.380;7.018;2023-04-24T11:02:56;18.50;;;10.00;;
39098;SDS011;24844;52.380;7.018;2023-04-24T11:05:23;15.30;;;9.23;;
39098;SDS011;24844;52.380;7.018;2023-04-24T11:08:37;16.50;;;8.15;;
39098;SDS011;24844;52.380;7.018;2023-04-24T11:11:17;14.18;;;7.90;;
39098;SDS011;24844;52.380;7.018;2023-04-24T11:21:42;12.60;;;4.88;;
39098;SDS011;24844;52.380;7.018;2023-04-24T11:34:52;12.15;;;5.50;;
39098;SDS011;24844;52.380;7.018;2023-04-24T11:37:19;14.38;;;5.75;;
39098;SDS011;24844;52.380;7.018;2023-04-24T11:39:46;14.95;;;6.35;;
39098;SDS011;24844;52.380;7.018;2023-04-24T11:42:14;27.63;;;6.30;;
39098;SDS011;24844;52.380;7.018;2023-04-24T11:44:41;19.92;;;5.75;;
39098;SDS011;24844;52.380;7.018;2023-04-24T11:47:07;12.70;;;5.63;;
39098;SDS011;24844;52.380;7.018;2023-04-24T11:49:33;19.83;;;6.38;;
39098;SDS011;24844;52.380;7.018;2023-04-24T11:52:01;14.35;;;6.70;;
39098;SDS011;24844;52.380;7.018;2023-04-24T11:54:27;17.73;;;6.18;;
39098;SDS011;24844;52.380;7.018;2023-04-24T11:56:52;12.25;;;5.32;;
39098;SDS011;24844;52.380;7.018;2023-04-24T11:59:18;15.35;;;5.53;;
39098;SDS011;24844;52.380;7.018;2023-04-24T12:01:47;17.17;;;5.20;;
39098;SDS011;24844;52.380;7.018;2023-04-24T12:04:14;15.30;;;5.38;;
39098;SDS011;24844;52.380;7.018;2023-04-24T12:06:59;17.75;;;4.82;;
39098;SDS011;24844;52.380;7.018;2023-04-24T12:12:12;11.80;;;4.07;;
39098;SDS011;24844;52.380;7.018;2023-04-24T12:14:57;14.40;;;3.88;;
39098;SDS011;24844;52.380;7.018;2023-04-24T12:17:25;13.38;;;3.70;;
39098;SDS011;24844;52.380;7.018;2023-04-24T12:19:52;9.85;;;3.80;;
39098;SDS011;24844;52.380;7.018;2023-04-24T12:22:21;12.55;;;4.15;;
39098;SDS011;24844;52.380;7.018;2023-04-24T12:24:56;14.43;;;4.05;;
39098;SDS011;24844;52.380;7.018;2023-04-24T12:27:30;14.52;;;3.90;;
39098;SDS011;24844;52.380;7.018;2023-04-24T12:29:58;13.15;;;3.38;;
39098;SDS011;24844;52.380;7.018;2023-04-24T12:32:24;10.20;;;3.63;;
39098;SDS011;24844;52.380;7.018;2023-04-24T12:34:51;10.68;;;3.15;;
39098;SDS011;24844;52.380;7.018;2023-04-24T12:37:20;10.82;;;2.97;;
39098;SDS011;24844;52.380;7.018;2023-04-24T12:40:00;10.55;;;3.30;;
39098;SDS011;24844;52.380;7.018;2023-04-24T12:42:29;8.98;;;3.10;;
39098;SDS011;24844;52.380;7.018;2023-04-24T12:44:57;8.88;;;3.00;;
39098;SDS011;24844;52.380;7.018;2023-04-24T12:47:28;11.55;;;3.08;;
39098;SDS011;24844;52.380;7.018;2023-04-24T12:49:54;9.82;;;2.85;;
39098;SDS011;24844;52.380;7.018;2023-04-24T12:52:24;7.38;;;2.45;;
39098;SDS011;24844;52.380;7.018;2023-04-24T12:54:52;8.07;;;3.13;;
39098;SDS011;24844;52.380;7.018;2023-04-24T12:57:19;8.45;;;3.30;;
39098;SDS011;24844;52.380;7.018;2023-04-24T12:59:45;11.60;;;2.72;;
39098;SDS011;24844;52.380;7.018;2023-04-24T13:02:11;6.90;;;2.45;;
39098;SDS011;24844;52.380;7.018;2023-04-24T13:04:37;7.55;;;2.10;;
39098;SDS011;24844;52.380;7.018;2023-04-24T13:07:03;8.68;;;2.72;;
39098;SDS011;24844;52.380;7.018;2023-04-24T13:09:28;7.85;;;2.45;;
39098;SDS011;24844;52.380;7.018;2023-04-24T13:11:54;7.45;;;2.47;;
39098;SDS011;24844;52.380;7.018;2023-04-24T13:14:21;11.98;;;2.60;;
39098;SDS011;24844;52.380;7.018;2023-04-24T13:16:47;4.03;;;2.13;;
39098;SDS011;24844;52.380;7.018;2023-04-24T13:19:13;4.38;;;2.08;;
39098;SDS011;24844;52.380;7.018;2023-04-24T13:21:38;8.75;;;2.50;;
39098;SDS011;24844;52.380;7.018;2023-04-24T13:24:04;6.97;;;2.30;;
39098;SDS011;24844;52.380;7.018;2023-04-24T13:26:30;8.25;;;2.63;;
39098;SDS011;24844;52.380;7.018;2023-04-24T13:28:56;5.25;;;2.38;;
39098;SDS011;24844;52.380;7.018;2023-04-24T13:31:21;8.48;;;2.58;;
39098;SDS011;24844;52.380;7.018;2023-04-24T13:33:47;4.32;;;2.10;;
39098;SDS011;24844;52.380;7.018;2023-04-24T13:36:13;6.43;;;2.03;;
39098;SDS011;24844;52.380;7.018;2023-04-24T13:38:38;6.47;;;1.98;;
39098;SDS011;24844;52.380;7.018;2023-04-24T13:41:04;7.10;;;2.13;;
39098;SDS011;24844;52.380;7.018;2023-04-24T13:43:30;5.03;;;1.73;;
39098;SDS011;24844;52.380;7.018;2023-04-24T13:45:55;5.10;;;1.55;;
39098;SDS011;24844;52.380;7.018;2023-04-24T13:48:21;6.38;;;2.00;;
39098;SDS011;24844;52.380;7.018;2023-04-24T13:50:46;7.75;;;2.78;;
39098;SDS011;24844;52.380;7.018;2023-04-24T13:53:14;7.18;;;2.00;;
39098;SDS011;24844;52.380;7.018;2023-04-24T13:55:40;5.30;;;2.20;;
39098;SDS011;24844;52.380;7.018;2023-04-24T13:58:05;3.53;;;1.52;;
39098;SDS011;24844;52.380;7.018;2023-04-24T14:00:31;3.65;;;1.50;;
39098;SDS011;24844;52.380;7.018;2023-04-24T14:02:57;8.00;;;1.40;;
39098;SDS011;24844;52.380;7.018;2023-04-24T14:05:22;3.53;;;1.50;;
39098;SDS011;24844;52.380;7.018;2023-04-24T14:07:48;5.10;;;1.30;;
39098;SDS011;24844;52.380;7.018;2023-04-24T14:10:14;5.13;;;1.20;;
39098;SDS011;24844;52.380;7.018;2023-04-24T14:12:39;5.78;;;1.27;;
39098;SDS011;24844;52.380;7.018;2023-04-24T14:15:05;5.85;;;1.42;;
39098;SDS011;24844;52.380;7.018;2023-04-24T14:17:31;5.03;;;1.30;;
39098;SDS011;24844;52.380;7.018;2023-04-24T14:19:56;2.65;;;1.10;;
39098;SDS011;24844;52.380;7.018;2023-04-24T14:22:24;4.82;;;1.15;;
39098;SDS011;24844;52.380;7.018;2023-04-24T14:24:50;4.25;;;1.33;;
39098;SDS011;24844;52.380;7.018;2023-04-24T14:27:16;6.00;;;1.25;;
39098;SDS011;24844;52.380;7.018;2023-04-24T14:29:41;3.78;;;1.27;;
39098;SDS011;24844;52.380;7.018;2023-04-24T14:32:07;4.72;;;1.30;;
39098;SDS011;24844;52.380;7.018;2023-04-24T14:34:34;3.25;;;1.27;;
39098;SDS011;24844;52.380;7.018;2023-04-24T14:36:59;6.28;;;1.70;;
39098;SDS011;24844;52.380;7.018;2023-04-24T14:39:25;5.63;;;1.40;;
39098;SDS011;24844;52.380;7.018;2023-04-24T14:41:51;6.97;;;1.88;;
39098;SDS011;24844;52.380;7.018;2023-04-24T14:44:16;8.13;;;1.77;;
39098;SDS011;24844;52.380;7.018;2023-04-24T14:46:42;3.80;;;1.42;;
39098;SDS011;24844;52.380;7.018;2023-04-24T14:49:08;6.88;;;1.70;;
39098;SDS011;24844;52.380;7.018;2023-04-24T14:51:35;6.05;;;1.88;;
39098;SDS011;24844;52.380;7.018;2023-04-24T14:54:01;4.15;;;1.75;;